Time;durP1;ratioP1;P1;durP2;ratioP2;P2;SDS_P1;SDS_P2;PMS_P1;PMS_P2;Temp;Humidity;BMP_temperature;BMP_pressure;BME280_temperature;BME280_humidity;BME280_pressure;Samples;Min_cycle;Max_cycle;Signal;HPM_P1;HPM_P2
2022/08/01 00:01:49;;;;;;;4.65;3.67;;;18.90;99.90;;;;;;5051235;28;19916;-52
2022/08/01 00:04:14;;;;;;;;;;;18.90;99.90;;;;;;5051417;28;20040;-49
2022/08/01 00:06:40;;;;;;;7.35;4.15;;;18.90;99.90;;;;;;5051992;28;20007;-48
2022/08/01 00:09:05;;;;;;;5.30;3.80;;;18.90;99.90;;;;;;5051870;28;20112;-51
2022/08/01 00:11:31;;;;;;;5.50;3.80;;;18.90;99.90;;;;;;5051684;28;20097;-50
2022/08/01 00:13:56;;;;;;;6.35;4.30;;;18.80;99.90;;;;;;5050773;28;20037;-50
2022/08/01 00:16:22;;;;;;;12.23;4.63;;;18.90;99.90;;;;;;5051432;28;20435;-49
2022/08/01 00:18:51;;;;;;;9.68;5.18;;;18.80;99.90;;;;;;5052132;28;20522;-51
2022/08/01 00:21:17;;;;;;;7.43;4.78;;;18.80;99.90;;;;;;5051654;28;20071;-49
2022/08/01 00:23:45;;;;;;;7.85;5.03;;;18.80;99.90;;;;;;5050734;28;20033;-50
2022/08/01 00:26:12;;;;;;;5.53;4.63;;;18.80;99.90;;;;;;5050858;28;20095;-51
2022/08/01 00:28:37;;;;;;;6.55;5.47;;;18.80;99.90;;;;;;5050812;28;20380;-51
2022/08/01 00:31:03;;;;;;;12.07;6.30;;;18.90;99.90;;;;;;5051174;28;20121;-48
2022/08/01 00:33:29;;;;;;;6.65;6.05;;;18.90;99.90;;;;;;5050954;28;20072;-52
2022/08/01 00:35:55;;;;;;;11.35;7.60;;;18.80;99.90;;;;;;5050815;28;20048;-51
2022/08/01 00:38:21;;;;;;;10.90;6.85;;;18.90;99.90;;;;;;5051060;28;20045;-49
2022/08/01 00:40:47;;;;;;;9.57;8.35;;;18.90;99.90;;;;;;5051099;28;20487;-51
2022/08/01 00:43:13;;;;;;;10.93;7.18;;;18.90;99.90;;;;;;5050194;28;20086;-51
2022/08/01 00:45:39;;;;;;;10.90;7.47;;;18.80;99.90;;;;;;5050830;28;20492;-50
2022/08/01 00:48:04;;;;;;;12.05;7.63;;;18.80;99.90;;;;;;5050070;28;20479;-49
2022/08/01 00:50:30;;;;;;;8.52;7.63;;;18.80;99.90;;;;;;5050844;28;20041;-51
2022/08/01 00:52:58;;;;;;;9.00;6.93;;;18.80;99.90;;;;;;5050486;28;20045;-51
2022/08/01 00:55:24;;;;;;;12.65;8.27;;;18.80;99.90;;;;;;5050359;28;20041;-49
2022/08/01 00:57:50;;;;;;;9.25;7.70;;;18.90;99.90;;;;;;5050363;28;20039;-51
2022/08/01 01:00:16;;;;;;;15.48;8.20;;;18.80;99.90;;;;;;5050786;28;20075;-50
2022/08/01 01:02:43;;;;;;;8.15;7.30;;;18.80;99.90;;;;;;5050026;28;20560;-51
2022/08/01 01:05:09;;;;;;;12.82;8.43;;;18.90;99.90;;;;;;5049813;28;20037;-50
2022/08/01 01:07:55;;;;;;;14.18;8.68;;;18.80;99.90;;;;;;5050201;28;20047;-50
2022/08/01 01:10:30;;;;;;;9.03;8.13;;;18.90;99.90;;;;;;5049269;28;20502;-50
2022/08/01 01:13:05;;;;;;;10.70;7.38;;;18.80;99.90;;;;;;5049981;28;20298;-48
2022/08/01 01:15:41;;;;;;;9.18;8.05;;;18.80;99.90;;;;;;5048867;28;20041;-52
2022/08/01 01:18:18;;;;;;;9.85;6.85;;;18.80;99.90;;;;;;5050099;28;20419;-49
2022/08/01 01:20:52;;;;;;;9.82;7.75;;;18.80;99.90;;;;;;5049657;28;20029;-48
2022/08/01 01:23:49;;;;;;;12.02;7.50;;;18.80;99.90;;;;;;5037817;28;20075;-51
2022/08/01 01:26:21;;;;;;;14.65;7.70;;;18.80;99.90;;;;;;5050144;28;20124;-49
2022/08/01 01:29:08;;;;;;;11.75;8.07;;;18.80;99.90;;;;;;5049641;28;20411;-52
2022/08/01 01:31:47;;;;;;;8.90;7.75;;;18.80;99.90;;;;;;5050167;28;20468;-52
2022/08/01 01:34:16;;;;;;;10.25;8.27;;;18.80;99.90;;;;;;5049531;28;20128;-49
2022/08/01 01:36:43;;;;;;;9.18;7.28;;;18.80;99.90;;;;;;5049699;28;20413;-50
2022/08/01 01:39:10;;;;;;;8.77;7.57;;;18.80;99.90;;;;;;5049200;28;20124;-50
2022/08/01 01:41:37;;;;;;;9.25;7.97;;;18.80;99.90;;;;;;5049047;28;20120;-52
2022/08/01 01:44:04;;;;;;;9.13;8.15;;;18.80;99.90;;;;;;5048087;28;20041;-50
2022/08/01 01:46:31;;;;;;;11.95;7.20;;;18.70;99.90;;;;;;5049866;28;20124;-49
2022/08/01 01:48:58;;;;;;;10.23;8.48;;;18.70;99.90;;;;;;5049434;28;20119;-50
2022/08/01 01:51:27;;;;;;;7.72;6.97;;;18.70;99.90;;;;;;5049692;28;20060;-50
2022/08/01 01:53:54;;;;;;;7.60;6.63;;;18.80;99.90;;;;;;5049731;28;20429;-49
2022/08/01 01:56:21;;;;;;;8.13;6.40;;;18.70;99.90;;;;;;5049669;28;20056;-50
2022/08/01 01:58:52;;;;;;;8.05;7.13;;;18.80;99.90;;;;;;5049729;28;20552;-50
2022/08/01 02:01:19;;;;;;;8.45;6.28;;;18.70;99.90;;;;;;5050071;28;20040;-50
2022/08/01 02:03:46;;;;;;;6.57;5.60;;;18.70;99.90;;;;;;5048558;28;20041;-51
2022/08/01 02:06:14;;;;;;;8.57;6.47;;;18.70;99.90;;;;;;5049942;28;20486;-50
2022/08/01 02:08:42;;;;;;;6.32;5.72;;;18.70;99.90;;;;;;5049616;28;20037;-52
2022/08/01 02:11:20;;;;;;;8.30;6.43;;;18.70;99.90;;;;;;5049443;28;20076;-50
2022/08/01 02:14:01;;;;;;;9.02;6.65;;;18.70;99.90;;;;;;5049593;28;20092;-49
2022/08/01 02:16:31;;;;;;;7.63;4.95;;;18.70;99.90;;;;;;5050019;28;20045;-49
2022/08/01 02:18:57;;;;;;;9.15;5.65;;;18.70;99.90;;;;;;5049210;28;20494;-49
2022/08/01 02:21:49;;;;;;;6.32;5.65;;;18.70;99.90;;;;;;5049860;28;20102;-50
2022/08/01 02:24:51;;;;;;;6.72;5.40;;;18.70;99.90;;;;;;5038167;28;20045;-53
2022/08/01 02:27:24;;;;;;;7.65;5.10;;;18.70;99.90;;;;;;5049176;28;20033;-49
2022/08/01 02:29:58;;;;;;;4.95;4.45;;;18.70;99.90;;;;;;5049691;28;20076;-48
2022/08/01 02:32:30;;;;;;;10.02;5.97;;;18.70;99.90;;;;;;5049325;28;20052;-52
2022/08/01 02:34:58;;;;;;;6.50;5.03;;;18.60;99.90;;;;;;5048489;28;20072;-49
2022/08/01 02:37:28;;;;;;;6.93;5.78;;;18.60;99.90;;;;;;5050183;28;20103;-50
2022/08/01 02:39:54;;;;;;;7.55;5.55;;;18.60;99.90;;;;;;5052840;28;20044;-49
2022/08/01 02:42:23;;;;;;;7.50;5.65;;;18.60;99.90;;;;;;5053309;28;20090;-51
2022/08/01 02:44:51;;;;;;;6.68;5.10;;;18.60;99.90;;;;;;5042637;28;20044;-51
2022/08/01 02:47:20;;;;;;;5.90;4.93;;;18.60;99.90;;;;;;5053282;28;20032;-53
2022/08/01 02:49:48;;;;;;;4.00;3.60;;;18.60;99.90;;;;;;5052802;28;20040;-49
2022/08/01 02:52:19;;;;;;;4.78;2.80;;;18.60;99.90;;;;;;5052881;28;20055;-50
2022/08/01 02:54:48;;;;;;;2.63;2.42;;;18.60;99.90;;;;;;5052176;28;20474;-49
2022/08/01 02:57:16;;;;;;;1.98;1.65;;;18.60;99.90;;;;;;5052871;28;20068;-49
2022/08/01 02:59:44;;;;;;;2.47;2.28;;;18.50;99.90;;;;;;5052458;28;20044;-50
2022/08/01 03:02:10;;;;;;;3.65;2.35;;;18.50;99.90;;;;;;5051057;28;20040;-50
2022/08/01 03:04:38;;;;;;;2.75;1.98;;;18.40;99.90;;;;;;5052186;28;20083;-49
2022/08/01 03:07:06;;;;;;;2.70;1.77;;;18.50;99.90;;;;;;5050851;28;20474;-50
2022/08/01 03:09:36;;;;;;;2.15;1.52;;;18.40;99.90;;;;;;5052717;28;20052;-50
2022/08/01 03:12:06;;;;;;;1.80;1.17;;;18.50;99.90;;;;;;5048194;28;20057;-52
2022/08/01 03:14:36;;;;;;;3.75;1.65;;;18.40;99.90;;;;;;5049742;28;20095;-49
2022/08/01 03:17:03;;;;;;;2.97;1.95;;;18.40;99.90;;;;;;5052617;28;20049;-49
2022/08/01 03:19:31;;;;;;;1.25;1.10;;;18.40;99.90;;;;;;5052234;28;20037;-53
2022/08/01 03:22:03;;;;;;;2.75;1.38;;;18.40;99.90;;;;;;5052539;28;20443;-50
2022/08/01 03:24:29;;;;;;;1.48;0.82;;;18.30;99.90;;;;;;5051643;28;20163;-51
2022/08/01 03:26:56;;;;;;;;;;;18.30;99.90;;;;;;5052676;28;20044;-51
2022/08/01 03:29:25;;;;;;;1.35;1.25;;;18.30;99.90;;;;;;5052327;28;19916;-53
2022/08/01 03:31:51;;;;;;;1.67;1.48;;;18.30;99.90;;;;;;5051581;28;20036;-51
2022/08/01 03:34:18;;;;;;;1.65;1.55;;;18.30;99.90;;;;;;5051041;28;20116;-49
2022/08/01 03:37:20;;;;;;;2.20;1.73;;;18.30;99.90;;;;;;5051808;28;20624;-51
2022/08/01 03:40:04;;;;;;;4.03;2.53;;;18.30;99.90;;;;;;5038853;28;20510;-48
2022/08/01 03:42:48;;;;;;;2.17;1.23;;;18.30;99.90;;;;;;5051765;28;20375;-53
2022/08/01 03:45:30;;;;;;;3.28;1.73;;;18.30;99.90;;;;;;5051573;28;20116;-50
2022/08/01 03:48:00;;;;;;;4.93;1.98;;;18.30;99.90;;;;;;5051090;28;20043;-52
2022/08/01 03:50:28;;;;;;;3.47;1.80;;;18.30;99.90;;;;;;5052645;28;20048;-48
2022/08/01 03:52:56;;;;;;;2.03;1.80;;;18.30;99.90;;;;;;5050894;28;20057;-48
2022/08/01 03:55:22;;;;;;;2.90;1.88;;;18.30;99.90;;;;;;5051115;28;20049;-51
2022/08/01 03:57:50;;;;;;;6.13;2.22;;;18.30;99.90;;;;;;5051255;28;20043;-48
2022/08/01 04:00:18;;;;;;;4.43;2.10;;;18.30;99.90;;;;;;5051596;28;20056;-53
2022/08/01 04:02:46;;;;;;;5.07;2.28;;;18.20;99.90;;;;;;5051370;28;20398;-52
2022/08/01 04:05:11;;;;;;;5.53;2.83;;;18.20;99.90;;;;;;5051589;28;20421;-50
2022/08/01 04:07:39;;;;;;;2.55;2.25;;;18.20;99.90;;;;;;5051219;28;20040;-50
2022/08/01 04:10:06;;;;;;;3.90;2.40;;;18.30;99.90;;;;;;5051526;28;20040;-50
2022/08/01 04:12:32;;;;;;;3.67;2.35;;;18.30;99.90;;;;;;5051350;28;20037;-49
2022/08/01 04:14:58;;;;;;;2.67;2.13;;;18.30;99.90;;;;;;5051109;28;20029;-49
2022/08/01 04:17:24;;;;;;;6.60;2.58;;;18.30;99.90;;;;;;5051123;28;20041;-48
2022/08/01 04:19:50;;;;;;;3.70;3.40;;;18.30;99.90;;;;;;5050927;28;20040;-52
2022/08/01 04:22:16;;;;;;;3.25;1.38;;;18.30;99.90;;;;;;5051310;28;20033;-51
2022/08/01 04:24:48;;;;;;;;;;;18.30;99.90;;;;;;5051514;28;20032;-48
2022/08/01 04:27:21;;;;;;;2.58;1.33;;;18.30;99.90;;;;;;5050677;28;19982;-49
2022/08/01 04:29:50;;;;;;;5.07;1.33;;;18.30;99.90;;;;;;5051489;28;20072;-53
2022/08/01 04:32:18;;;;;;;4.35;1.35;;;18.30;99.90;;;;;;5050459;28;20094;-50
2022/08/01 04:34:46;;;;;;;4.97;1.20;;;18.30;99.90;;;;;;5051168;28;20098;-48
2022/08/01 04:37:13;;;;;;;4.32;1.00;;;18.30;99.90;;;;;;5050786;28;20041;-49
2022/08/01 04:39:41;;;;;;;7.18;1.45;;;18.30;99.90;;;;;;5050684;28;20032;-51
2022/08/01 04:42:07;;;;;;;4.03;0.80;;;18.20;99.90;;;;;;5050888;28;20220;-55
2022/08/01 04:44:33;;;;;;;5.00;1.08;;;18.20;99.90;;;;;;5050526;28;20032;-50
2022/08/01 04:47:02;;;;;;;3.20;1.38;;;18.20;99.90;;;;;;5050185;28;20037;-51
2022/08/01 04:49:30;;;;;;;2.70;1.02;;;18.20;99.90;;;;;;5049038;28;20091;-53
2022/08/01 04:52:02;;;;;;;2.28;0.90;;;18.30;99.90;;;;;;5050781;28;20076;-48
2022/08/01 04:54:35;;;;;;;4.38;1.20;;;18.20;99.90;;;;;;5050544;28;20356;-50
2022/08/01 04:57:03;;;;;;;1.58;0.77;;;18.20;99.90;;;;;;5048471;28;20040;-49
2022/08/01 04:59:40;;;;;;;2.50;0.65;;;18.30;99.90;;;;;;5049833;28;20039;-51
2022/08/01 05:02:23;;;;;;;6.30;0.90;;;18.20;99.90;;;;;;5050256;28;20029;-50
2022/08/01 05:04:49;;;;;;;4.32;0.80;;;18.20;99.90;;;;;;5050126;28;20032;-48
2022/08/01 05:07:15;;;;;;;3.10;0.93;;;18.20;99.90;;;;;;5050150;28;20029;-48
2022/08/01 05:09:41;;;;;;;;;;;18.20;99.90;;;;;;5050636;28;20586;-50
2022/08/01 05:12:07;;;;;;;6.13;1.38;;;18.20;99.90;;;;;;5050000;28;20003;-50
2022/08/01 05:14:33;;;;;;;7.70;2.33;;;18.20;99.90;;;;;;5049726;28;20045;-50
2022/08/01 05:17:02;;;;;;;5.07;1.27;;;18.20;99.90;;;;;;5049953;28;20471;-50
2022/08/01 05:19:29;;;;;;;6.28;0.98;;;18.20;99.90;;;;;;5050060;28;20079;-53
2022/08/01 05:21:56;;;;;;;4.22;1.20;;;18.30;99.90;;;;;;5050011;28;20037;-49
2022/08/01 05:24:22;;;;;;;3.13;0.70;;;18.20;99.90;;;;;;5049789;28;20080;-49
2022/08/01 05:26:48;;;;;;;;;;;18.20;99.90;;;;;;5050899;28;20377;-50
2022/08/01 05:29:14;;;;;;;7.83;1.00;;;18.20;99.90;;;;;;5049955;28;19920;-52
2022/08/01 05:31:40;;;;;;;6.95;2.03;;;18.20;99.90;;;;;;5049842;28;20044;-49
2022/08/01 05:34:06;;;;;;;5.13;1.00;;;18.20;99.90;;;;;;5049722;28;20200;-50
2022/08/01 05:36:31;;;;;;;3.38;1.02;;;18.30;99.90;;;;;;5049522;28;20037;-50
2022/08/01 05:38:57;;;;;;;5.35;1.42;;;18.30;99.90;;;;;;5049946;28;20502;-51
2022/08/01 05:41:22;;;;;;;3.63;1.05;;;18.30;99.90;;;;;;5049986;28;20097;-48
2022/08/01 05:43:48;;;;;;;3.08;0.85;;;18.30;99.90;;;;;;5049603;28;20072;-48
2022/08/01 05:46:13;;;;;;;9.18;1.45;;;18.30;99.90;;;;;;5050016;28;20032;-50
2022/08/01 05:48:39;;;;;;;9.55;0.90;;;18.30;99.90;;;;;;5050083;28;20525;-53
2022/08/01 05:51:05;;;;;;;4.60;1.40;;;18.30;99.90;;;;;;5049923;28;20405;-50
2022/08/01 05:53:30;;;;;;;6.00;1.30;;;18.30;99.90;;;;;;5048887;28;20120;-48
2022/08/01 05:55:56;;;;;;;4.45;1.23;;;18.30;99.90;;;;;;5048985;28;20130;-49
2022/08/01 05:58:22;;;;;;;7.57;1.52;;;18.30;99.90;;;;;;5049047;28;20623;-49
2022/08/01 06:00:47;;;;;;;3.85;1.20;;;18.30;99.90;;;;;;5050113;28;20632;-48
2022/08/01 06:03:14;;;;;;;4.22;1.38;;;18.30;99.90;;;;;;5049104;28;20068;-52
2022/08/01 06:05:39;;;;;;;11.80;2.40;;;18.20;99.90;;;;;;5050044;28;20048;-48
2022/08/01 06:08:05;;;;;;;7.20;1.83;;;18.20;99.90;;;;;;5049634;28;20041;-49
2022/08/01 06:10:30;;;;;;;6.45;1.48;;;18.20;99.90;;;;;;5049921;28;20064;-50
2022/08/01 06:12:56;;;;;;;7.15;1.48;;;18.20;99.90;;;;;;5052480;28;20045;-51
2022/08/01 06:15:22;;;;;;;6.10;2.22;;;18.20;99.90;;;;;;5053708;28;20041;-49
2022/08/01 06:17:47;;;;;;;7.68;1.50;;;18.20;99.90;;;;;;5054199;28;20513;-48
2022/08/01 06:20:13;;;;;;;6.05;1.33;;;18.30;99.90;;;;;;5053870;28;20033;-48
2022/08/01 06:22:38;;;;;;;9.77;2.05;;;18.30;99.90;;;;;;5052837;28;20033;-49
2022/08/01 06:25:05;;;;;;;18.88;1.42;;;18.20;99.90;;;;;;5052285;28;20071;-48
2022/08/01 06:27:33;;;;;;;11.32;1.45;;;18.30;99.90;;;;;;5035284;28;20394;-48
2022/08/01 06:29:59;;;;;;;8.35;1.50;;;18.30;99.90;;;;;;5052814;28;20044;-50
2022/08/01 06:32:25;;;;;;;7.72;1.95;;;18.30;99.90;;;;;;5052891;28;20502;-48
2022/08/01 06:34:51;;;;;;;8.13;1.38;;;18.40;99.90;;;;;;5067863;28;20099;-51
2022/08/01 06:37:17;;;;;;;6.35;1.50;;;18.40;99.90;;;;;;5052293;28;20041;-48
2022/08/01 06:39:42;;;;;;;9.57;1.52;;;18.40;99.90;;;;;;5052892;28;20064;-48
2022/08/01 06:42:09;;;;;;;9.80;1.60;;;18.50;99.90;;;;;;5052684;28;20037;-49
2022/08/01 06:44:34;;;;;;;12.70;1.50;;;18.60;99.90;;;;;;5052694;28;20037;-54
2022/08/01 06:47:00;;;;;;;17.75;1.98;;;18.70;99.90;;;;;;5052324;28;20037;-51
2022/08/01 06:49:26;;;;;;;13.55;2.53;;;18.80;99.90;;;;;;5051839;28;20603;-48
2022/08/01 06:51:51;;;;;;;15.90;2.45;;;18.80;99.90;;;;;;5052567;28;20037;-51
2022/08/01 06:54:17;;;;;;;;;;;18.90;99.90;;;;;;5052464;28;20514;-50
2022/08/01 06:56:42;;;;;;;10.05;1.38;;;18.90;99.90;;;;;;5046016;28;19967;-50
2022/08/01 06:59:08;;;;;;;14.18;1.58;;;19.00;99.90;;;;;;5051243;28;20060;-48
2022/08/01 07:01:34;;;;;;;10.75;2.03;;;19.00;99.90;;;;;;5051653;28;20486;-47
2022/08/01 07:03:59;;;;;;;11.93;2.25;;;19.10;99.90;;;;;;5060501;28;20029;-48
2022/08/01 07:06:25;;;;;;;23.92;2.55;;;19.20;99.90;;;;;;5067050;28;20586;-50
2022/08/01 07:08:52;;;;;;;15.75;2.08;;;19.30;99.90;;;;;;5056455;28;20044;-50
2022/08/01 07:11:19;;;;;;;14.00;1.95;;;19.30;99.90;;;;;;5065024;28;20036;-48
2022/08/01 07:13:45;;;;;;;13.90;1.80;;;19.40;99.90;;;;;;5060514;28;20048;-50
2022/08/01 07:16:12;;;;;;;10.70;1.77;;;19.40;99.90;;;;;;5062207;28;20043;-49
2022/08/01 07:18:37;;;;;;;13.80;2.08;;;19.40;99.90;;;;;;5054939;28;20104;-51
2022/08/01 07:21:03;;;;;;;12.55;2.55;;;19.40;99.90;;;;;;5059135;28;21013;-50
2022/08/01 07:23:28;;;;;;;13.35;2.17;;;19.40;99.90;;;;;;5064971;28;20037;-52
2022/08/01 07:25:54;;;;;;;10.77;1.88;;;19.40;99.90;;;;;;5062288;28;20044;-49
2022/08/01 07:28:19;;;;;;;;;;;19.30;99.90;;;;;;5064336;28;21134;-52
2022/08/01 07:30:45;;;;;;;14.45;2.55;;;19.30;99.90;;;;;;5059012;28;19925;-48
2022/08/01 07:33:11;;;;;;;12.02;2.38;;;19.40;99.90;;;;;;5060889;28;20043;-51
2022/08/01 07:35:39;;;;;;;;;;;19.40;99.90;;;;;;5057851;28;20048;-52
2022/08/01 07:38:06;;;;;;;11.02;1.58;;;19.40;99.90;;;;;;5058376;28;20396;-48
2022/08/01 07:40:31;;;;;;;13.57;1.80;;;19.50;99.90;;;;;;5058504;28;20065;-50
2022/08/01 07:42:57;;;;;;;14.35;1.67;;;19.50;99.90;;;;;;5060305;28;20424;-52
2022/08/01 07:45:23;;;;;;;;;;;19.60;99.90;;;;;;5062500;28;20045;-50
2022/08/01 07:47:49;;;;;;;12.75;1.77;;;19.60;99.90;;;;;;5052664;28;19917;-51
2022/08/01 07:50:15;;;;;;;12.10;1.95;;;19.60;99.90;;;;;;5060155;28;20593;-49
2022/08/01 07:52:42;;;;;;;12.88;1.38;;;19.60;99.90;;;;;;5063008;28;20048;-52
2022/08/01 07:55:09;;;;;;;13.23;1.63;;;19.60;99.90;;;;;;5064093;28;20043;-52
2022/08/01 07:57:34;;;;;;;12.70;2.00;;;19.60;99.90;;;;;;5051964;28;20037;-49
2022/08/01 08:00:01;;;;;;;14.50;1.98;;;19.60;99.90;;;;;;5060748;28;20690;-49
2022/08/01 08:02:27;;;;;;;11.60;1.70;;;19.50;99.90;;;;;;5065658;28;20040;-49
2022/08/01 08:04:52;;;;;;;8.68;2.05;;;19.50;99.90;;;;;;5062915;28;20044;-50
2022/08/01 08:07:18;;;;;;;;;;;19.50;99.90;;;;;;5057182;28;20079;-51
2022/08/01 08:09:43;;;;;;;10.45;1.70;;;19.50;99.90;;;;;;5046714;28;20314;-50
2022/08/01 08:12:09;;;;;;;;;;;19.50;99.90;;;;;;5047790;28;20032;-49
2022/08/01 08:14:34;;;;;;;7.82;2.15;;;19.60;99.90;;;;;;5046671;28;20441;-48
2022/08/01 08:17:00;;;;;;;11.75;1.88;;;19.60;99.90;;;;;;5045951;28;20538;-50
2022/08/01 08:19:26;;;;;;;17.67;2.28;;;19.60;99.90;;;;;;5044024;28;20490;-49
2022/08/01 08:21:51;;;;;;;14.48;1.98;;;19.60;99.90;;;;;;5045541;28;20116;-53
2022/08/01 08:24:19;;;;;;;;;;;19.60;99.90;;;;;;5046943;28;20072;-54
2022/08/01 08:26:50;;;;;;;16.33;1.92;;;19.60;99.90;;;;;;5047411;28;20026;-51
2022/08/01 08:29:16;;;;;;;11.45;2.15;;;19.60;99.90;;;;;;5047059;28;20045;-48
2022/08/01 08:31:42;;;;;;;18.73;2.08;;;19.60;99.90;;;;;;5045932;28;20417;-52
2022/08/01 08:34:07;;;;;;;;;;;19.70;99.90;;;;;;5047634;28;20036;-49
2022/08/01 08:36:33;;;;;;;23.35;2.40;;;19.70;99.90;;;;;;5046493;28;19935;-49
2022/08/01 08:39:02;;;;;;;15.90;2.47;;;19.70;99.90;;;;;;5047729;28;20079;-50
2022/08/01 08:41:30;;;;;;;17.02;3.22;;;19.80;99.90;;;;;;5046390;28;20052;-52
2022/08/01 08:43:57;;;;;;;16.25;2.58;;;19.80;99.90;;;;;;5046620;28;20033;-49
2022/08/01 08:46:24;;;;;;;15.90;3.20;;;19.90;99.90;;;;;;5046199;28;20056;-50
2022/08/01 08:48:51;;;;;;;13.57;1.70;;;19.90;99.90;;;;;;5047079;28;20111;-50
2022/08/01 08:51:18;;;;;;;11.00;2.30;;;19.90;99.90;;;;;;5046192;28;20037;-49
2022/08/01 08:53:46;;;;;;;10.60;1.92;;;20.00;99.90;;;;;;5046687;28;20044;-53
2022/08/01 08:56:13;;;;;;;10.10;1.55;;;20.00;99.90;;;;;;5046295;28;20541;-48
2022/08/01 08:58:43;;;;;;;10.98;1.88;;;20.10;99.90;;;;;;5045260;28;20029;-49
2022/08/01 09:01:09;;;;;;;12.30;2.00;;;20.10;99.90;;;;;;5046241;28;20052;-48
2022/08/01 09:03:35;;;;;;;13.32;1.40;;;20.10;99.90;;;;;;5045763;28;20067;-50
2022/08/01 09:06:01;;;;;;;12.10;1.63;;;20.20;99.90;;;;;;5046782;28;20072;-50
2022/08/01 09:08:27;;;;;;;;;;;20.30;99.90;;;;;;5046770;28;20140;-50
2022/08/01 09:10:52;;;;;;;16.65;1.95;;;20.40;99.90;;;;;;5045844;28;19917;-52
2022/08/01 09:13:18;;;;;;;15.90;2.03;;;20.50;99.90;;;;;;5045457;28;20127;-52
2022/08/01 09:15:45;;;;;;;;;;;20.70;99.90;;;;;;5045713;28;20037;-51
2022/08/01 09:18:34;;;;;;;8.27;1.27;;;20.70;99.90;;;;;;5046051;28;19923;-50
2022/08/01 09:21:06;;;;;;;11.88;2.20;;;20.90;99.90;;;;;;5039678;28;20098;-50
2022/08/01 09:23:42;;;;;;;8.25;1.65;;;21.00;99.90;;;;;;5048936;28;20560;-48
2022/08/01 09:26:09;;;;;;;17.63;2.28;;;21.10;99.90;;;;;;5058761;28;20045;-50
2022/08/01 09:28:35;;;;;;;11.13;1.63;;;21.20;99.90;;;;;;5058769;28;20141;-51
2022/08/01 09:31:09;;;;;;;7.30;1.38;;;21.40;99.90;;;;;;5057699;28;20127;-49
2022/08/01 09:33:55;;;;;;;13.10;2.53;;;21.40;99.90;;;;;;5055247;28;20265;-49
2022/08/01 09:36:26;;;;;;;15.38;2.00;;;21.40;99.90;;;;;;5061908;28;20040;-49
2022/08/01 09:38:54;;;;;;;8.82;1.65;;;21.40;99.90;;;;;;5060836;28;20047;-48
2022/08/01 09:41:32;;;;;;;4.65;0.63;;;21.40;99.90;;;;;;5055522;28;20086;-48
2022/08/01 09:43:58;;;;;;;19.90;2.05;;;21.40;99.90;;;;;;5060844;28;20031;-50
2022/08/01 09:46:26;;;;;;;16.08;2.05;;;21.40;99.90;;;;;;5060013;28;20046;-48
2022/08/01 09:48:55;;;;;;;10.55;1.35;;;21.40;99.90;;;;;;5061728;28;20320;-49
2022/08/01 09:51:35;;;;;;;8.38;1.20;;;21.40;99.90;;;;;;5053890;28;20044;-49
2022/08/01 09:54:04;;;;;;;11.38;2.15;;;21.40;99.90;;;;;;5049756;28;20040;-48
2022/08/01 09:56:37;;;;;;;11.38;1.70;;;21.50;99.90;;;;;;5052927;28;20040;-49
2022/08/01 09:59:04;;;;;;;12.75;2.50;;;21.60;99.90;;;;;;5051924;28;20056;-50
2022/08/01 10:01:41;;;;;;;;;;;21.70;99.90;;;;;;5045750;28;20053;-49
2022/08/01 10:04:13;;;;;;;8.65;1.38;;;21.80;99.90;;;;;;5051675;28;20388;-49
2022/08/01 10:06:42;;;;;;;9.77;1.10;;;21.90;99.90;;;;;;5053523;28;20033;-54
2022/08/01 10:09:08;;;;;;;11.85;1.48;;;22.00;99.90;;;;;;5052471;28;20043;-48
2022/08/01 10:11:38;;;;;;;12.80;1.60;;;22.00;99.90;;;;;;5051022;28;20497;-49
2022/08/01 10:14:05;;;;;;;10.02;1.77;;;22.00;99.90;;;;;;5055746;28;20035;-48
2022/08/01 10:16:33;;;;;;;13.68;1.90;;;22.10;99.90;;;;;;5051758;28;20052;-50
2022/08/01 10:18:59;;;;;;;13.93;2.50;;;22.10;99.90;;;;;;5048518;28;20029;-49
2022/08/01 10:21:26;;;;;;;;;;;22.20;99.90;;;;;;5052511;28;20032;-50
2022/08/01 10:23:55;;;;;;;8.52;1.52;;;22.20;99.90;;;;;;5054078;28;19917;-48
2022/08/01 10:26:24;;;;;;;8.18;1.65;;;22.20;99.90;;;;;;5050852;28;20110;-52
2022/08/01 10:28:51;;;;;;;10.48;1.58;;;22.30;99.90;;;;;;5048440;28;20040;-49
2022/08/01 10:31:17;;;;;;;11.25;1.65;;;22.30;99.90;;;;;;5051421;28;20041;-49
2022/08/01 10:33:44;;;;;;;11.48;2.47;;;22.30;99.90;;;;;;5054081;28;20068;-49
2022/08/01 10:36:10;;;;;;;11.95;2.67;;;22.30;99.90;;;;;;5054970;28;20413;-49
2022/08/01 10:38:35;;;;;;;;;;;22.30;99.90;;;;;;5053394;28;20035;-49
2022/08/01 10:41:03;;;;;;;7.15;0.77;;;22.30;99.90;;;;;;5053005;28;19920;-49
2022/08/01 10:43:29;;;;;;;6.63;0.90;;;22.40;99.90;;;;;;5053464;28;20036;-48
2022/08/01 10:45:55;;;;;;;;;;;22.40;99.90;;;;;;5054303;28;20110;-52
2022/08/01 10:48:35;;;;;;;7.13;1.08;;;22.50;99.90;;;;;;5053892;28;20011;-51
2022/08/01 10:51:04;;;;;;;7.50;0.85;;;22.50;99.90;;;;;;5053136;28;20288;-48
2022/08/01 10:53:29;;;;;;;7.85;1.15;;;22.60;99.90;;;;;;5049693;28;20433;-49
2022/08/01 10:55:55;;;;;;;;;;;22.70;98.00;;;;;;5053700;28;20037;-48
2022/08/01 10:58:31;;;;;;;6.05;0.98;;;22.70;97.60;;;;;;5054736;28;19920;-49
2022/08/01 11:01:26;;;;;;;9.18;1.52;;;22.70;97.80;;;;;;5058278;28;20037;-48
2022/08/01 11:03:56;;;;;;;5.80;1.30;;;22.60;97.60;;;;;;5054414;28;20044;-49
2022/08/01 11:06:25;;;;;;;7.18;0.93;;;22.60;98.10;;;;;;5056531;28;20047;-49
2022/08/01 11:08:56;;;;;;;6.13;1.52;;;22.70;97.70;;;;;;5076221;28;20072;-49
2022/08/01 11:11:21;;;;;;;13.45;1.65;;;22.70;97.60;;;;;;5059457;28;20044;-49
2022/08/01 11:14:00;;;;;;;;;;;22.70;97.50;;;;;;5059363;28;20475;-48
2022/08/01 11:16:27;;;;;;;;;;;22.70;96.00;;;;;;5056016;28;20028;-54
2022/08/01 11:18:53;;;;;;;;;;;22.70;97.30;;;;;;5056510;28;19924;-50
2022/08/01 11:21:19;;;;;;;;;;;22.70;96.60;;;;;;5060595;28;19924;-49
2022/08/01 11:23:48;;;;;;;;;;;22.70;96.20;;;;;;5057372;28;19921;-50
2022/08/01 11:26:14;;;;;;;;;;;22.70;96.70;;;;;;5058265;28;19920;-52
2022/08/01 11:28:40;;;;;;;;;;;22.70;96.20;;;;;;5058130;28;20333;-48
2022/08/01 11:31:08;;;;;;;;;;;22.70;96.30;;;;;;5059356;28;20436;-48
2022/08/01 11:33:44;;;;;;;;;;;22.70;95.40;;;;;;5058943;28;19978;-50
2022/08/01 11:36:09;;;;;;;;;;;22.70;95.60;;;;;;5057170;28;19928;-49
2022/08/01 11:38:36;;;;;;;;;;;22.70;95.30;;;;;;5059752;28;19920;-49
2022/08/01 11:41:20;;;;;;;;;;;22.70;95.30;;;;;;5059453;28;19974;-48
2022/08/01 11:44:05;;;;;;;;;;;22.70;95.20;;;;;;5059795;28;20479;-48
2022/08/01 11:46:50;;;;;;;;;;;22.80;95.00;;;;;;5058314;28;20278;-48
2022/08/01 11:49:21;;;;;;;;;;;22.80;95.10;;;;;;5059794;28;19935;-52
2022/08/01 11:51:47;;;;;;;;;;;22.80;94.70;;;;;;5058940;28;20425;-48
2022/08/01 11:54:13;;;;;;;;;;;22.70;94.80;;;;;;5060578;28;20153;-53
2022/08/01 11:56:39;;;;;;;;;;;22.80;94.30;;;;;;5055191;28;19928;-49
2022/08/01 11:59:05;;;;;;;;;;;22.80;93.60;;;;;;5061143;28;19916;-48
2022/08/01 12:01:31;;;;;;;;;;;22.80;93.90;;;;;;5055157;28;20370;-49
2022/08/01 12:03:56;;;;;;;;;;;22.80;92.70;;;;;;5057692;28;19970;-50
2022/08/01 12:06:28;;;;;;;;;;;22.80;93.60;;;;;;5051032;28;20457;-50
2022/08/01 12:08:54;;;;;;;;;;;22.80;93.40;;;;;;5057979;28;19925;-49
2022/08/01 12:11:19;;;;;;;;;;;22.80;90.90;;;;;;5056768;28;20404;-48
2022/08/01 12:13:46;;;;;;;;;;;22.80;92.70;;;;;;5053802;28;19917;-50
2022/08/01 12:16:12;;;;;;;;;;;22.80;92.50;;;;;;5057107;28;19924;-51
2022/08/01 12:18:38;;;;;;;;;;;22.80;91.60;;;;;;5055225;28;19916;-49
2022/08/01 12:21:04;;;;;;;;;;;22.80;91.70;;;;;;5053728;28;20070;-49
2022/08/01 12:23:30;;;;;;;;;;;22.90;92.10;;;;;;5055068;28;20096;-51
2022/08/01 12:25:55;;;;;;;;;;;22.90;91.30;;;;;;5047747;28;20322;-49
2022/08/01 12:28:22;;;;;;;;;;;22.90;91.40;;;;;;5056992;28;19923;-50
2022/08/01 12:30:48;;;;;;;;;;;23.00;91.00;;;;;;5057412;28;19920;-49
2022/08/01 12:33:16;;;;;;;;;;;23.00;91.10;;;;;;5056232;28;20005;-50
2022/08/01 12:35:42;;;;;;;;;;;23.00;92.40;;;;;;5052431;28;19925;-49
2022/08/01 12:38:18;;;;;;;;;;;23.00;92.70;;;;;;5055596;28;19939;-51
2022/08/01 12:40:46;;;;;;;;;;;23.00;91.40;;;;;;5054861;28;20352;-51
2022/08/01 12:43:15;;;;;;;;;;;23.00;90.00;;;;;;5054095;28;20395;-49
2022/08/01 12:45:42;;;;;;;;;;;22.90;90.50;;;;;;5049609;28;19921;-49
2022/08/01 12:48:11;;;;;;;;;;;22.90;90.70;;;;;;5052158;28;19927;-49
2022/08/01 12:50:38;;;;;;;;;;;22.80;89.60;;;;;;5047166;28;19921;-50
2022/08/01 12:53:03;;;;;;;;;;;22.90;91.00;;;;;;5055496;28;20050;-52
2022/08/01 12:55:29;;;;;;;;;;;22.90;91.20;;;;;;5052719;28;20051;-49
2022/08/01 12:58:11;;;;;;;;;;;23.00;89.40;;;;;;5050595;28;20569;-49
2022/08/01 13:00:40;;;;;;;;;;;23.00;90.10;;;;;;5053218;28;19993;-51
2022/08/01 13:03:10;;;;;;;;;;;23.00;89.70;;;;;;5054384;28;20060;-50
2022/08/01 13:05:46;;;;;;;;;;;23.10;90.20;;;;;;5039064;28;20523;-50
2022/08/01 13:08:12;;;;;;;;;;;23.10;89.60;;;;;;5043472;28;19943;-51